Overview Statistics Trail Chart Weather Telemetry Raw packets
 

This is the latest recevied weather packets stored in our database for station/object WC4PEM. If no packets are shown the sender has not sent any weather packets the latest 10 day(s).

<< 150 151 152 153 154 155 156 >>
Time Temp. Humidity Pressure Rain* Wind** Luminosity Snow
1787779015 27.22° C 86% 1013.6 hPa 2.29 mm - - -
1787778969 27.22° C 86% 1013.6 hPa 2.03 mm - - -
1787778715 27.22° C 86% 1013.6 hPa 2.03 mm - - -
1787778627 27.22° C 84% 1013.7 hPa 1.27 mm - - -
1787778415 27.22° C 84% 1013.7 hPa 1.27 mm - - -
1787778115 27.78° C 80% 1013.8 hPa 0.25 mm - - -
1787778012 28.89° C 76% 1013.7 hPa 0 mm - - -
1787777815 28.89° C 76% 1013.7 hPa 0 mm - - -
1787777658 30° C 71% 1013.7 hPa 0 mm - - -
1787777515 30° C 71% 1013.7 hPa 0 mm - - -
1787777215 33.89° C 64% 1013.9 hPa 0 mm - - -
1787776915 35° C 57% 1014 hPa 0 mm - - -
1787776689 35.56° C 56% 1013.8 hPa 0 mm - - -
1787776615 35.56° C 56% 1013.8 hPa 0 mm - - -
1787776534 35.56° C 55% 1013.6 hPa 0 mm - - -
1787776315 35.56° C 55% 1013.6 hPa 0 mm - - -
1787776015 36.11° C 55% 1013.6 hPa 0 mm - - -
1787775715 36.67° C 56% 1013.6 hPa 0 mm - - -
1787775415 36.67° C 52% 1013.7 hPa 0 mm - - -
1787775115 36.67° C 53% 1013.7 hPa 0 mm - - -
1787774815 36.67° C 52% 1013.7 hPa 0 mm - - -
1787774515 37.22° C 50% 1013.8 hPa 0 mm - - -
1787774289 37.78° C 51% 1013.8 hPa 0 mm - - -
1787774215 37.78° C 51% 1013.8 hPa 0 mm - - -
1787773915 37.22° C 52% 1013.8 hPa 0 mm - - -

* Rain latest hour (hover to see other rain measurements)
** Current wind speed in m/s (hover to see current wind gust speed)